CFLRD CYSN-CYHU
Flight info
| Callsign | CFLRD |
|---|---|
| Flight time | 1h 14m |
| Altitude | 25000 |
| Route | TALEB Q921 TIGET DCT MIGLO Q955 EPMOK DCT TALNO DCT NAPEE |
| Aircraft | PC12/L-SDFGRWY/S |
Departure
| Time | 2026-05-09 16:05 |
|---|---|
| Airport | Niagara District Airport (CYSN) |
Arrival
| Time | 2026-05-09 17:19 |
|---|---|
| Airport | Montréal / Saint-Hubert Metropolitan Airport (CYHU) |
| Time | Latitude | Longitude | Altitude | Speed | Heading |
|---|---|---|---|---|---|
| 2026-05-09 15:52 | 43.18876 | -79.17300 | 322 ft | 0 kts | 280° |
| 2026-05-09 16:00 | 43.18877 | -79.17308 | 322 ft | 1 kts | 298° |
| 2026-05-09 16:00 | 43.18882 | -79.17309 | 322 ft | 5 kts | 12° |
| 2026-05-09 16:00 | 43.18982 | -79.17201 | 324 ft | 16 kts | 42° |
| 2026-05-09 16:00 | 43.19045 | -79.17129 | 323 ft | 5 kts | 39° |
| 2026-05-09 16:01 | 43.19059 | -79.17112 | 322 ft | 1 kts | 42° |
| 2026-05-09 16:01 | 43.19090 | -79.17073 | 322 ft | 9 kts | 42° |
| 2026-05-09 16:01 | 43.19154 | -79.16992 | 324 ft | 16 kts | 43° |
| 2026-05-09 16:01 | 43.19222 | -79.16901 | 321 ft | 14 kts | 50° |
| 2026-05-09 16:02 | 43.19318 | -79.16732 | 320 ft | 21 kts | 54° |
| 2026-05-09 16:02 | 43.19455 | -79.16482 | 319 ft | 25 kts | 55° |
| 2026-05-09 16:02 | 43.19535 | -79.16346 | 320 ft | 5 kts | 39° |
| 2026-05-09 16:03 | 43.19610 | -79.16369 | 319 ft | 12 kts | 287° |
| 2026-05-09 16:03 | 43.19611 | -79.16364 | 319 ft | 4 kts | 271° |
| 2026-05-09 16:03 | 43.19596 | -79.16423 | 318 ft | 0 kts | 232° |
| 2026-05-09 16:04 | 43.19583 | -79.16445 | 318 ft | 14 kts | 231° |
| 2026-05-09 16:04 | 43.19372 | -79.16820 | 317 ft | 83 kts | 233° |
| 2026-05-09 16:04 | 43.18984 | -79.17530 | 728 ft | 92 kts | 228° |
| 2026-05-09 16:05 | 43.18515 | -79.18259 | 1159 ft | 117 kts | 229° |
| 2026-05-09 16:05 | 43.18038 | -79.19216 | 1810 ft | 123 kts | 233° |
| 2026-05-09 16:05 | 43.17538 | -79.20170 | 2522 ft | 123 kts | 232° |
| 2026-05-09 16:05 | 43.17009 | -79.21150 | 3120 ft | 134 kts | 231° |
| 2026-05-09 16:06 | 43.16449 | -79.22178 | 3800 ft | 134 kts | 231° |
| 2026-05-09 16:06 | 43.15848 | -79.23278 | 4216 ft | 157 kts | 232° |
| 2026-05-09 16:06 | 43.15272 | -79.24618 | 4764 ft | 176 kts | 255° |
| 2026-05-09 16:06 | 43.15557 | -79.26338 | 5069 ft | 209 kts | 303° |
| 2026-05-09 16:07 | 43.16825 | -79.27288 | 5758 ft | 215 kts | 347° |
| 2026-05-09 16:07 | 43.18332 | -79.27442 | 6354 ft | 219 kts | 355° |
| 2026-05-09 16:07 | 43.19851 | -79.27478 | 6924 ft | 222 kts | 3° |
| 2026-05-09 16:07 | 43.21200 | -79.26508 | 7659 ft | 218 kts | 48° |
| 2026-05-09 16:08 | 43.22074 | -79.24944 | 8814 ft | 198 kts | 49° |
| 2026-05-09 16:08 | 43.23136 | -79.23683 | 9314 ft | 218 kts | 32° |
| 2026-05-09 16:08 | 43.24503 | -79.22417 | 9324 ft | 249 kts | 32° |
| 2026-05-09 16:08 | 43.25942 | -79.20941 | 9352 ft | 264 kts | 36° |
| 2026-05-09 16:09 | 43.27304 | -79.19428 | 10076 ft | 248 kts | 36° |
| 2026-05-09 16:09 | 43.28636 | -79.17986 | 10883 ft | 232 kts | 34° |
| 2026-05-09 16:09 | 43.29833 | -79.16713 | 12075 ft | 206 kts | 32° |
| 2026-05-09 16:09 | 43.30947 | -79.15532 | 13017 ft | 203 kts | 31° |
| 2026-05-09 16:10 | 43.32091 | -79.14318 | 13702 ft | 210 kts | 31° |
| 2026-05-09 16:10 | 43.33250 | -79.13074 | 14395 ft | 212 kts | 31° |
| 2026-05-09 16:10 | 43.34408 | -79.11832 | 15086 ft | 214 kts | 31° |
| 2026-05-09 16:10 | 43.35596 | -79.10560 | 15795 ft | 217 kts | 30° |
| 2026-05-09 16:11 | 43.36796 | -79.09273 | 16506 ft | 220 kts | 30° |
| 2026-05-09 16:11 | 43.38000 | -79.07983 | 17206 ft | 222 kts | 30° |
| 2026-05-09 16:11 | 43.39234 | -79.06658 | 17915 ft | 225 kts | 30° |
| 2026-05-09 16:11 | 43.40477 | -79.05323 | 18538 ft | 228 kts | 30° |
| 2026-05-09 16:12 | 43.41725 | -79.03982 | 19140 ft | 232 kts | 30° |
| 2026-05-09 16:12 | 43.43005 | -79.02608 | 19743 ft | 235 kts | 30° |
| 2026-05-09 16:12 | 43.44309 | -79.01205 | 20348 ft | 239 kts | 30° |
| 2026-05-09 16:12 | 43.45634 | -78.99779 | 20944 ft | 243 kts | 30° |
| 2026-05-09 16:13 | 43.46980 | -78.98329 | 21531 ft | 246 kts | 30° |
| 2026-05-09 16:13 | 43.48334 | -78.96870 | 22099 ft | 250 kts | 30° |
| 2026-05-09 16:13 | 43.49703 | -78.95395 | 22691 ft | 253 kts | 30° |
| 2026-05-09 16:13 | 43.51103 | -78.93883 | 23286 ft | 256 kts | 30° |
| 2026-05-09 16:14 | 43.52510 | -78.92363 | 23841 ft | 253 kts | 30° |
| 2026-05-09 16:14 | 43.53872 | -78.90887 | 24461 ft | 251 kts | 30° |
| 2026-05-09 16:14 | 43.55272 | -78.89384 | 24781 ft | 257 kts | 30° |
| 2026-05-09 16:14 | 43.56666 | -78.87871 | 24799 ft | 251 kts | 31° |
| 2026-05-09 16:15 | 43.57992 | -78.86418 | 24797 ft | 237 kts | 30° |
| 2026-05-09 16:15 | 43.59329 | -78.84994 | 24806 ft | 250 kts | 29° |
| 2026-05-09 16:15 | 43.60741 | -78.83483 | 24829 ft | 269 kts | 31° |
| 2026-05-09 16:15 | 43.62263 | -78.81829 | 24831 ft | 290 kts | 31° |
| 2026-05-09 16:16 | 43.63896 | -78.80049 | 24829 ft | 306 kts | 32° |
| 2026-05-09 16:16 | 43.65599 | -78.78192 | 24824 ft | 314 kts | 32° |
| 2026-05-09 16:16 | 43.67318 | -78.76320 | 24832 ft | 313 kts | 32° |
| 2026-05-09 16:16 | 43.69004 | -78.74486 | 24826 ft | 309 kts | 32° |
| 2026-05-09 16:17 | 43.70699 | -78.72644 | 24828 ft | 307 kts | 32° |
| 2026-05-09 16:17 | 43.72360 | -78.70837 | 24826 ft | 306 kts | 32° |
| 2026-05-09 16:17 | 43.74043 | -78.69004 | 24826 ft | 306 kts | 32° |
| 2026-05-09 16:17 | 43.75718 | -78.67179 | 24819 ft | 307 kts | 32° |
| 2026-05-09 16:18 | 43.77410 | -78.65334 | 24823 ft | 310 kts | 32° |
| 2026-05-09 16:18 | 43.79087 | -78.63502 | 24825 ft | 311 kts | 32° |
| 2026-05-09 16:18 | 43.80806 | -78.61623 | 24827 ft | 312 kts | 32° |
| 2026-05-09 16:18 | 43.82493 | -78.59778 | 24823 ft | 312 kts | 32° |
| 2026-05-09 16:19 | 43.84200 | -78.57910 | 24822 ft | 313 kts | 32° |
| 2026-05-09 16:19 | 43.85916 | -78.56031 | 24822 ft | 312 kts | 32° |
| 2026-05-09 16:19 | 43.87594 | -78.54190 | 24820 ft | 310 kts | 32° |
| 2026-05-09 16:19 | 43.89287 | -78.52334 | 24818 ft | 308 kts | 32° |
| 2026-05-09 16:20 | 43.90969 | -78.50489 | 24815 ft | 307 kts | 32° |
| 2026-05-09 16:20 | 43.92632 | -78.48663 | 24809 ft | 307 kts | 32° |
| 2026-05-09 16:20 | 43.94312 | -78.46816 | 24806 ft | 307 kts | 32° |
| 2026-05-09 16:20 | 43.95989 | -78.44972 | 24797 ft | 307 kts | 32° |
| 2026-05-09 16:21 | 43.97671 | -78.43120 | 24796 ft | 307 kts | 32° |
| 2026-05-09 16:21 | 43.99326 | -78.41297 | 24794 ft | 307 kts | 32° |
| 2026-05-09 16:21 | 44.00964 | -78.39373 | 24787 ft | 310 kts | 40° |
| 2026-05-09 16:21 | 44.02291 | -78.36956 | 24804 ft | 317 kts | 56° |
| 2026-05-09 16:22 | 44.03326 | -78.34270 | 24797 ft | 318 kts | 59° |
| 2026-05-09 16:22 | 44.04360 | -78.31549 | 24798 ft | 318 kts | 59° |
| 2026-05-09 16:22 | 44.05402 | -78.28829 | 24796 ft | 318 kts | 59° |
| 2026-05-09 16:22 | 44.06444 | -78.26110 | 24796 ft | 318 kts | 59° |
| 2026-05-09 16:23 | 44.07471 | -78.23414 | 24794 ft | 318 kts | 59° |
| 2026-05-09 16:23 | 44.08511 | -78.20684 | 24800 ft | 318 kts | 59° |
| 2026-05-09 16:23 | 44.09548 | -78.17960 | 24800 ft | 318 kts | 59° |
| 2026-05-09 16:23 | 44.10586 | -78.15231 | 24801 ft | 318 kts | 59° |
| 2026-05-09 16:24 | 44.11609 | -78.12540 | 24802 ft | 318 kts | 59° |
| 2026-05-09 16:24 | 44.12645 | -78.09811 | 24806 ft | 318 kts | 59° |
| 2026-05-09 16:24 | 44.13684 | -78.07071 | 24808 ft | 318 kts | 59° |
| 2026-05-09 16:24 | 44.14711 | -78.04362 | 24807 ft | 318 kts | 59° |
| 2026-05-09 16:25 | 44.15741 | -78.01640 | 24810 ft | 318 kts | 59° |
| 2026-05-09 16:25 | 44.16426 | -77.99831 | 24809 ft | 318 kts | 59° |
| 2026-05-09 16:25 | 44.17629 | -77.96045 | 24810 ft | 319 kts | 68° |
| 2026-05-09 16:25 | 44.18394 | -77.93178 | 24808 ft | 320 kts | 68° |
| 2026-05-09 16:26 | 44.19181 | -77.90269 | 24808 ft | 321 kts | 68° |
| 2026-05-09 16:26 | 44.19979 | -77.87342 | 24813 ft | 321 kts | 68° |
| 2026-05-09 16:26 | 44.20771 | -77.84424 | 24813 ft | 322 kts | 68° |
| 2026-05-09 16:26 | 44.21295 | -77.82486 | 24811 ft | 322 kts | 68° |
| 2026-05-09 16:27 | 44.22084 | -77.79563 | 24818 ft | 322 kts | 68° |
| 2026-05-09 16:27 | 44.23128 | -77.75694 | 24815 ft | 322 kts | 68° |
| 2026-05-09 16:27 | 44.23654 | -77.73743 | 24815 ft | 322 kts | 68° |
| 2026-05-09 16:27 | 44.24446 | -77.70801 | 24816 ft | 322 kts | 68° |
| 2026-05-09 16:28 | 44.25225 | -77.67905 | 24816 ft | 322 kts | 68° |
| 2026-05-09 16:28 | 44.26014 | -77.64968 | 24820 ft | 322 kts | 68° |
| 2026-05-09 16:28 | 44.26801 | -77.62033 | 24819 ft | 322 kts | 68° |
| 2026-05-09 16:28 | 44.27582 | -77.59121 | 24819 ft | 322 kts | 68° |
| 2026-05-09 16:29 | 44.28369 | -77.56179 | 24816 ft | 322 kts | 68° |
| 2026-05-09 16:29 | 44.29156 | -77.53239 | 24816 ft | 323 kts | 68° |
| 2026-05-09 16:29 | 44.29941 | -77.50322 | 24831 ft | 323 kts | 68° |
| 2026-05-09 16:29 | 44.30734 | -77.47383 | 24847 ft | 323 kts | 68° |
| 2026-05-09 16:30 | 44.31525 | -77.44438 | 24832 ft | 323 kts | 68° |
| 2026-05-09 16:30 | 44.32301 | -77.41541 | 24829 ft | 322 kts | 68° |
| 2026-05-09 16:30 | 44.33088 | -77.38600 | 24835 ft | 322 kts | 68° |
| 2026-05-09 16:30 | 44.33875 | -77.35658 | 24833 ft | 322 kts | 68° |
| 2026-05-09 16:31 | 44.34653 | -77.32749 | 24839 ft | 322 kts | 68° |
| 2026-05-09 16:31 | 44.35440 | -77.29798 | 24837 ft | 322 kts | 68° |
| 2026-05-09 16:31 | 44.36213 | -77.26896 | 24841 ft | 322 kts | 68° |
| 2026-05-09 16:31 | 44.37002 | -77.23935 | 24840 ft | 322 kts | 68° |
| 2026-05-09 16:32 | 44.37777 | -77.21017 | 24841 ft | 322 kts | 68° |
| 2026-05-09 16:32 | 44.38558 | -77.18078 | 24837 ft | 322 kts | 68° |
| 2026-05-09 16:32 | 44.39329 | -77.15169 | 24835 ft | 322 kts | 69° |
| 2026-05-09 16:32 | 44.40107 | -77.12210 | 24835 ft | 323 kts | 69° |
| 2026-05-09 16:33 | 44.40880 | -77.09251 | 24837 ft | 323 kts | 69° |
| 2026-05-09 16:33 | 44.41655 | -77.06293 | 24837 ft | 323 kts | 69° |
| 2026-05-09 16:33 | 44.42424 | -77.03362 | 24834 ft | 323 kts | 69° |
| 2026-05-09 16:33 | 44.43198 | -77.00401 | 24849 ft | 323 kts | 69° |
| 2026-05-09 16:34 | 44.43974 | -76.97427 | 24846 ft | 323 kts | 69° |
| 2026-05-09 16:34 | 44.44739 | -76.94493 | 24858 ft | 323 kts | 69° |
| 2026-05-09 16:34 | 44.45514 | -76.91522 | 24859 ft | 323 kts | 69° |
| 2026-05-09 16:34 | 44.46273 | -76.88604 | 24859 ft | 322 kts | 69° |
| 2026-05-09 16:35 | 44.47047 | -76.85625 | 24857 ft | 322 kts | 69° |
| 2026-05-09 16:35 | 44.47806 | -76.82701 | 24870 ft | 322 kts | 69° |
| 2026-05-09 16:35 | 44.48573 | -76.79738 | 24867 ft | 323 kts | 69° |
| 2026-05-09 16:35 | 44.49341 | -76.76775 | 24868 ft | 322 kts | 69° |
| 2026-05-09 16:36 | 44.50105 | -76.73817 | 24868 ft | 322 kts | 69° |
| 2026-05-09 16:36 | 44.52403 | -76.64905 | 24860 ft | 325 kts | 69° |
| 2026-05-09 16:37 | 44.53160 | -76.61961 | 24862 ft | 325 kts | 69° |
| 2026-05-09 16:37 | 44.53929 | -76.58969 | 24860 ft | 325 kts | 69° |
| 2026-05-09 16:37 | 44.54696 | -76.55983 | 24861 ft | 325 kts | 69° |
| 2026-05-09 16:37 | 44.55455 | -76.53020 | 24859 ft | 325 kts | 69° |
| 2026-05-09 16:38 | 44.56221 | -76.50028 | 24861 ft | 325 kts | 69° |
| 2026-05-09 16:38 | 44.56982 | -76.47047 | 24864 ft | 325 kts | 69° |
| 2026-05-09 16:38 | 44.57736 | -76.44095 | 24871 ft | 325 kts | 69° |
| 2026-05-09 16:38 | 44.58498 | -76.41105 | 24860 ft | 324 kts | 69° |
| 2026-05-09 16:39 | 44.59259 | -76.38117 | 24859 ft | 322 kts | 70° |
| 2026-05-09 16:39 | 44.60006 | -76.35177 | 24858 ft | 322 kts | 70° |
| 2026-05-09 16:39 | 44.60760 | -76.32210 | 24857 ft | 322 kts | 70° |
| 2026-05-09 16:39 | 44.61505 | -76.29274 | 24844 ft | 322 kts | 70° |
| 2026-05-09 16:40 | 44.62261 | -76.26290 | 24843 ft | 325 kts | 70° |
| 2026-05-09 16:40 | 44.63022 | -76.23281 | 24840 ft | 327 kts | 70° |
| 2026-05-09 16:42 | 44.69048 | -76.02546 | 24842 ft | 327 kts | 66° |
| 2026-05-09 16:42 | 44.69919 | -75.99584 | 24840 ft | 326 kts | 66° |
| 2026-05-09 16:42 | 44.70752 | -75.96617 | 24836 ft | 325 kts | 69° |
| 2026-05-09 16:42 | 44.71536 | -75.93668 | 24845 ft | 324 kts | 69° |
| 2026-05-09 16:43 | 44.72332 | -75.90707 | 24841 ft | 322 kts | 68° |
| 2026-05-09 16:43 | 44.73123 | -75.87760 | 24839 ft | 322 kts | 68° |
| 2026-05-09 16:43 | 44.73911 | -75.84808 | 24825 ft | 322 kts | 69° |
| 2026-05-09 16:43 | 44.74703 | -75.81834 | 24822 ft | 325 kts | 69° |
| 2026-05-09 16:44 | 44.75490 | -75.78881 | 24820 ft | 326 kts | 69° |
| 2026-05-09 16:44 | 44.76285 | -75.75894 | 24820 ft | 326 kts | 69° |
| 2026-05-09 16:44 | 44.77081 | -75.72897 | 24819 ft | 326 kts | 69° |
| 2026-05-09 16:44 | 44.77870 | -75.69926 | 24819 ft | 326 kts | 69° |
| 2026-05-09 16:45 | 44.78666 | -75.66920 | 24817 ft | 326 kts | 69° |
| 2026-05-09 16:45 | 44.79460 | -75.63921 | 24816 ft | 326 kts | 69° |
| 2026-05-09 16:45 | 44.80247 | -75.60944 | 24816 ft | 326 kts | 69° |
| 2026-05-09 16:45 | 44.81040 | -75.57942 | 24817 ft | 326 kts | 69° |
| 2026-05-09 16:46 | 44.81833 | -75.54932 | 24802 ft | 326 kts | 69° |
| 2026-05-09 16:46 | 44.82614 | -75.51969 | 24802 ft | 326 kts | 69° |
| 2026-05-09 16:46 | 44.83406 | -75.48958 | 24802 ft | 326 kts | 69° |
| 2026-05-09 16:46 | 44.84206 | -75.45979 | 24817 ft | 326 kts | 67° |
| 2026-05-09 16:47 | 44.85054 | -75.43019 | 24821 ft | 325 kts | 67° |
| 2026-05-09 16:47 | 44.85893 | -75.40047 | 24821 ft | 326 kts | 67° |
| 2026-05-09 16:47 | 44.86735 | -75.37058 | 24808 ft | 328 kts | 67° |
| 2026-05-09 16:47 | 44.87575 | -75.34088 | 24812 ft | 329 kts | 67° |
| 2026-05-09 16:48 | 44.88423 | -75.31091 | 24816 ft | 330 kts | 67° |
| 2026-05-09 16:48 | 44.89274 | -75.28075 | 24820 ft | 330 kts | 68° |
| 2026-05-09 16:48 | 44.90122 | -75.25063 | 24824 ft | 330 kts | 68° |
| 2026-05-09 16:48 | 44.90973 | -75.22036 | 24828 ft | 330 kts | 68° |
| 2026-05-09 16:49 | 44.91811 | -75.19054 | 24839 ft | 330 kts | 68° |
| 2026-05-09 16:49 | 44.92664 | -75.16017 | 24844 ft | 331 kts | 68° |
| 2026-05-09 16:49 | 44.93503 | -75.13023 | 24849 ft | 331 kts | 68° |
| 2026-05-09 16:50 | 44.95194 | -75.06982 | 24849 ft | 331 kts | 68° |
| 2026-05-09 16:50 | 44.96043 | -75.03941 | 24849 ft | 331 kts | 68° |
| 2026-05-09 16:50 | 44.96878 | -75.00948 | 24854 ft | 331 kts | 68° |
| 2026-05-09 16:50 | 44.97725 | -74.97906 | 24891 ft | 330 kts | 68° |
| 2026-05-09 16:51 | 44.98361 | -74.94841 | 24868 ft | 327 kts | 81° |
| 2026-05-09 16:51 | 44.98539 | -74.91664 | 24865 ft | 322 kts | 92° |
| 2026-05-09 16:51 | 44.98582 | -74.88463 | 24866 ft | 326 kts | 92° |
| 2026-05-09 16:51 | 44.98635 | -74.85280 | 24869 ft | 328 kts | 92° |
| 2026-05-09 16:52 | 44.98690 | -74.82048 | 24872 ft | 329 kts | 92° |
| 2026-05-09 16:52 | 44.98739 | -74.78798 | 24875 ft | 330 kts | 92° |
| 2026-05-09 16:52 | 44.98787 | -74.75549 | 24877 ft | 330 kts | 92° |
| 2026-05-09 16:52 | 44.98834 | -74.72349 | 24875 ft | 328 kts | 92° |
| 2026-05-09 16:53 | 44.98882 | -74.69123 | 24872 ft | 327 kts | 92° |
| 2026-05-09 16:53 | 44.98927 | -74.65902 | 24869 ft | 326 kts | 92° |
| 2026-05-09 16:53 | 44.98972 | -74.62720 | 24867 ft | 326 kts | 92° |
| 2026-05-09 16:53 | 44.99016 | -74.59508 | 24865 ft | 326 kts | 92° |
| 2026-05-09 16:54 | 44.99059 | -74.56303 | 24863 ft | 326 kts | 92° |
| 2026-05-09 16:54 | 44.99100 | -74.53141 | 24853 ft | 325 kts | 92° |
| 2026-05-09 16:54 | 44.99141 | -74.49918 | 24853 ft | 327 kts | 93° |
| 2026-05-09 16:54 | 44.99181 | -74.46720 | 24853 ft | 330 kts | 93° |
| 2026-05-09 16:55 | 44.99221 | -74.43461 | 24853 ft | 331 kts | 93° |
| 2026-05-09 16:55 | 44.99260 | -74.40207 | 24854 ft | 332 kts | 93° |
| 2026-05-09 16:55 | 44.99364 | -74.36936 | 24847 ft | 334 kts | 85° |
| 2026-05-09 16:55 | 44.99893 | -74.33770 | 24843 ft | 336 kts | 71° |
| 2026-05-09 16:56 | 45.00715 | -74.30675 | 24845 ft | 335 kts | 69° |
| 2026-05-09 16:56 | 45.01537 | -74.27584 | 24848 ft | 336 kts | 69° |
| 2026-05-09 16:56 | 45.02341 | -74.24506 | 24848 ft | 336 kts | 70° |
| 2026-05-09 16:56 | 45.03159 | -74.21381 | 24849 ft | 336 kts | 69° |
| 2026-05-09 16:57 | 45.03968 | -74.18305 | 24851 ft | 330 kts | 69° |
| 2026-05-09 16:57 | 45.04760 | -74.15292 | 24845 ft | 326 kts | 69° |
| 2026-05-09 16:57 | 45.05541 | -74.12310 | 24867 ft | 324 kts | 69° |
| 2026-05-09 16:57 | 45.06318 | -74.09338 | 24858 ft | 322 kts | 69° |
| 2026-05-09 16:58 | 45.07096 | -74.06357 | 24857 ft | 321 kts | 69° |
| 2026-05-09 16:58 | 45.07873 | -74.03382 | 24856 ft | 321 kts | 69° |
| 2026-05-09 16:58 | 45.08640 | -74.00438 | 24861 ft | 321 kts | 69° |
| 2026-05-09 16:58 | 45.09416 | -73.97459 | 24830 ft | 323 kts | 69° |
| 2026-05-09 16:59 | 45.10196 | -73.94458 | 24480 ft | 328 kts | 69° |
| 2026-05-09 16:59 | 45.10971 | -73.91464 | 24125 ft | 320 kts | 69° |
| 2026-05-09 16:59 | 45.11735 | -73.88518 | 23766 ft | 316 kts | 69° |
| 2026-05-09 16:59 | 45.12481 | -73.85643 | 23413 ft | 309 kts | 69° |
| 2026-05-09 17:00 | 45.13213 | -73.82810 | 22978 ft | 303 kts | 69° |
| 2026-05-09 17:00 | 45.13936 | -73.80009 | 22569 ft | 302 kts | 69° |
| 2026-05-09 17:00 | 45.14663 | -73.77198 | 22159 ft | 303 kts | 69° |
| 2026-05-09 17:00 | 45.15384 | -73.74396 | 21758 ft | 302 kts | 69° |
| 2026-05-09 17:01 | 45.16102 | -73.71607 | 21367 ft | 301 kts | 69° |
| 2026-05-09 17:01 | 45.16859 | -73.68855 | 20973 ft | 299 kts | 62° |
| 2026-05-09 17:01 | 45.17973 | -73.66372 | 20585 ft | 296 kts | 49° |
| 2026-05-09 17:01 | 45.19332 | -73.64336 | 20207 ft | 280 kts | 37° |
| 2026-05-09 17:02 | 45.20787 | -73.62512 | 19821 ft | 276 kts | 37° |
| 2026-05-09 17:02 | 45.22204 | -73.60703 | 19442 ft | 267 kts | 38° |
| 2026-05-09 17:02 | 45.23561 | -73.58960 | 19063 ft | 263 kts | 38° |
| 2026-05-09 17:02 | 45.24923 | -73.57224 | 18689 ft | 261 kts | 38° |
| 2026-05-09 17:03 | 45.26258 | -73.55522 | 18330 ft | 259 kts | 38° |
| 2026-05-09 17:04 | 45.35422 | -73.43777 | 15438 ft | 235 kts | 39° |
| 2026-05-09 17:05 | 45.36603 | -73.42259 | 14987 ft | 227 kts | 38° |
| 2026-05-09 17:05 | 45.37774 | -73.40758 | 14529 ft | 224 kts | 39° |
| 2026-05-09 17:05 | 45.38924 | -73.39280 | 14081 ft | 221 kts | 39° |
| 2026-05-09 17:05 | 45.40033 | -73.37851 | 13643 ft | 208 kts | 39° |
| 2026-05-09 17:06 | 45.41073 | -73.36508 | 13147 ft | 197 kts | 38° |
| 2026-05-09 17:06 | 45.42082 | -73.35216 | 12676 ft | 196 kts | 38° |
| 2026-05-09 17:06 | 45.43093 | -73.33914 | 12208 ft | 194 kts | 39° |
| 2026-05-09 17:06 | 45.44094 | -73.32624 | 11745 ft | 195 kts | 39° |
| 2026-05-09 17:07 | 45.45094 | -73.31334 | 11279 ft | 184 kts | 39° |
| 2026-05-09 17:07 | 45.45393 | -73.30945 | 11126 ft | 176 kts | 39° |
| 2026-05-09 17:07 | 45.46852 | -73.29061 | 10339 ft | 166 kts | 39° |
| 2026-05-09 17:07 | 45.47703 | -73.27963 | 9880 ft | 159 kts | 39° |
| 2026-05-09 17:08 | 45.48490 | -73.26944 | 9409 ft | 146 kts | 40° |
| 2026-05-09 17:08 | 45.50072 | -73.24905 | 8458 ft | 156 kts | 41° |
| 2026-05-09 17:08 | 45.50862 | -73.23882 | 8003 ft | 153 kts | 42° |
| 2026-05-09 17:09 | 45.51654 | -73.22857 | 7531 ft | 156 kts | 43° |
| 2026-05-09 17:09 | 45.52455 | -73.21822 | 6910 ft | 157 kts | 44° |
| 2026-05-09 17:09 | 45.53252 | -73.20788 | 6484 ft | 155 kts | 44° |
| 2026-05-09 17:09 | 45.54062 | -73.19738 | 6072 ft | 159 kts | 45° |
| 2026-05-09 17:10 | 45.54908 | -73.18639 | 5648 ft | 174 kts | 45° |
| 2026-05-09 17:10 | 45.55829 | -73.17443 | 5265 ft | 186 kts | 46° |
| 2026-05-09 17:10 | 45.56784 | -73.16207 | 4858 ft | 181 kts | 45° |
| 2026-05-09 17:10 | 45.57781 | -73.15090 | 4456 ft | 188 kts | 30° |
| 2026-05-09 17:11 | 45.59037 | -73.14588 | 4043 ft | 185 kts | 5° |
| 2026-05-09 17:11 | 45.60302 | -73.14797 | 3616 ft | 185 kts | 341° |
| 2026-05-09 17:11 | 45.61414 | -73.15669 | 3273 ft | 183 kts | 316° |
| 2026-05-09 17:11 | 45.62338 | -73.16908 | 3049 ft | 183 kts | 313° |
| 2026-05-09 17:12 | 45.63264 | -73.18138 | 3000 ft | 181 kts | 313° |
| 2026-05-09 17:12 | 45.63940 | -73.19578 | 2987 ft | 170 kts | 284° |
| 2026-05-09 17:12 | 45.64129 | -73.20619 | 2972 ft | 153 kts | 270° |
| 2026-05-09 17:12 | 45.64049 | -73.22053 | 2979 ft | 142 kts | 240° |
| 2026-05-09 17:13 | 45.63474 | -73.23800 | 2973 ft | 146 kts | 230° |
| 2026-05-09 17:13 | 45.62837 | -73.24878 | 2982 ft | 137 kts | 223° |
| 2026-05-09 17:13 | 45.62224 | -73.25863 | 2895 ft | 131 kts | 221° |
| 2026-05-09 17:13 | 45.61617 | -73.26799 | 2726 ft | 125 kts | 220° |
| 2026-05-09 17:14 | 45.61226 | -73.27397 | 2613 ft | 122 kts | 220° |
| 2026-05-09 17:14 | 45.60458 | -73.28565 | 2397 ft | 123 kts | 220° |
| 2026-05-09 17:14 | 45.60071 | -73.29164 | 2281 ft | 116 kts | 221° |
| 2026-05-09 17:14 | 45.59587 | -73.29922 | 2138 ft | 95 kts | 217° |
| 2026-05-09 17:15 | 45.59116 | -73.30623 | 2008 ft | 102 kts | 219° |
| 2026-05-09 17:15 | 45.58634 | -73.31362 | 1874 ft | 103 kts | 220° |
| 2026-05-09 17:15 | 45.58162 | -73.32089 | 1726 ft | 95 kts | 220° |
| 2026-05-09 17:15 | 45.57722 | -73.32747 | 1609 ft | 94 kts | 218° |
| 2026-05-09 17:16 | 45.57246 | -73.33492 | 1485 ft | 106 kts | 221° |
| 2026-05-09 17:17 | 45.54427 | -73.37807 | 631 ft | 81 kts | 217° |
| 2026-05-09 17:18 | 45.54026 | -73.38407 | 561 ft | 85 kts | 219° |
| 2026-05-09 17:18 | 45.53644 | -73.39012 | 448 ft | 81 kts | 219° |
| 2026-05-09 17:18 | 45.53255 | -73.39616 | 353 ft | 85 kts | 216° |
| 2026-05-09 17:18 | 45.52838 | -73.40210 | 261 ft | 83 kts | 217° |
| 2026-05-09 17:19 | 45.52468 | -73.40805 | 113 ft | 76 kts | 216° |
| 2026-05-09 17:19 | 45.52165 | -73.41250 | 93 ft | 39 kts | 224° |
| 2026-05-09 17:19 | 45.51993 | -73.41516 | 95 ft | 39 kts | 251° |
| 2026-05-09 17:19 | 45.51826 | -73.41771 | 95 ft | 34 kts | 221° |
| 2026-05-09 17:20 | 45.51672 | -73.42000 | 94 ft | 29 kts | 237° |
| 2026-05-09 17:20 | 45.51655 | -73.42136 | 93 ft | 15 kts | 273° |
| 2026-05-09 17:20 | 45.51688 | -73.42226 | 94 ft | 15 kts | 316° |
| 2026-05-09 17:20 | 45.51797 | -73.42271 | 95 ft | 11 kts | 352° |
| 2026-05-09 17:21 | 45.51846 | -73.42284 | 96 ft | 4 kts | 351° |
| 2026-05-09 17:21 | 45.51877 | -73.42291 | 95 ft | 8 kts | 350° |
| 2026-05-09 17:21 | 45.51913 | -73.42319 | 95 ft | 9 kts | 313° |
| 2026-05-09 17:21 | 45.51934 | -73.42360 | 96 ft | 9 kts | 298° |
| 2026-05-09 17:22 | 45.51965 | -73.42434 | 95 ft | 3 kts | 354° |
| 2026-05-09 17:22 | 45.51968 | -73.42434 | 95 ft | 0 kts | 359° |